sensor_id;sensor_type;location;lat;lon;timestamp;P1;durP1;ratioP1;P2;durP2;ratioP2
60612;SDS011;46443;59.792;17.626;2023-09-12T00:00:16;27.07;;;15.10;;
60612;SDS011;46443;59.792;17.626;2023-09-12T00:02:42;24.47;;;13.90;;
60612;SDS011;46443;59.792;17.626;2023-09-12T00:05:08;23.27;;;13.97;;
60612;SDS011;46443;59.792;17.626;2023-09-12T00:07:35;25.90;;;14.33;;
60612;SDS011;46443;59.792;17.626;2023-09-12T00:10:01;21.60;;;13.25;;
60612;SDS011;46443;59.792;17.626;2023-09-12T00:12:28;26.50;;;14.77;;
60612;SDS011;46443;59.792;17.626;2023-09-12T00:14:54;22.27;;;14.07;;
60612;SDS011;46443;59.792;17.626;2023-09-12T00:17:20;24.67;;;14.70;;
60612;SDS011;46443;59.792;17.626;2023-09-12T00:19:46;21.53;;;13.57;;
60612;SDS011;46443;59.792;17.626;2023-09-12T00:22:12;18.33;;;12.40;;
60612;SDS011;46443;59.792;17.626;2023-09-12T00:24:38;24.50;;;13.67;;
60612;SDS011;46443;59.792;17.626;2023-09-12T00:27:04;22.73;;;15.00;;
60612;SDS011;46443;59.792;17.626;2023-09-12T00:29:31;24.50;;;15.23;;
60612;SDS011;46443;59.792;17.626;2023-09-12T00:31:57;23.85;;;14.32;;
60612;SDS011;46443;59.792;17.626;2023-09-12T00:34:23;24.98;;;14.82;;
60612;SDS011;46443;59.792;17.626;2023-09-12T00:36:49;23.50;;;14.63;;
60612;SDS011;46443;59.792;17.626;2023-09-12T00:39:16;23.98;;;14.18;;
60612;SDS011;46443;59.792;17.626;2023-09-12T00:41:42;20.58;;;14.20;;
60612;SDS011;46443;59.792;17.626;2023-09-12T00:44:09;23.50;;;15.05;;
60612;SDS011;46443;59.792;17.626;2023-09-12T00:46:36;30.10;;;16.08;;
60612;SDS011;46443;59.792;17.626;2023-09-12T00:49:02;29.35;;;16.83;;
60612;SDS011;46443;59.792;17.626;2023-09-12T00:51:30;25.65;;;14.50;;
60612;SDS011;46443;59.792;17.626;2023-09-12T00:53:57;27.43;;;16.33;;
60612;SDS011;46443;59.792;17.626;2023-09-12T00:56:23;27.43;;;16.53;;
60612;SDS011;46443;59.792;17.626;2023-09-12T00:58:49;31.90;;;18.20;;
60612;SDS011;46443;59.792;17.626;2023-09-12T01:01:17;29.60;;;16.95;;
60612;SDS011;46443;59.792;17.626;2023-09-12T01:03:43;32.63;;;19.25;;
60612;SDS011;46443;59.792;17.626;2023-09-12T01:06:09;29.95;;;17.48;;
60612;SDS011;46443;59.792;17.626;2023-09-12T01:08:36;37.67;;;21.48;;
60612;SDS011;46443;59.792;17.626;2023-09-12T01:11:03;36.17;;;18.65;;
60612;SDS011;46443;59.792;17.626;2023-09-12T01:13:29;35.83;;;20.05;;
60612;SDS011;46443;59.792;17.626;2023-09-12T01:15:55;33.38;;;19.33;;
60612;SDS011;46443;59.792;17.626;2023-09-12T01:18:22;33.30;;;19.52;;
60612;SDS011;46443;59.792;17.626;2023-09-12T01:26:29;41.97;;;22.10;;
60612;SDS011;46443;59.792;17.626;2023-09-12T01:28:55;39.07;;;21.03;;
60612;SDS011;46443;59.792;17.626;2023-09-12T01:31:23;43.43;;;21.30;;
60612;SDS011;46443;59.792;17.626;2023-09-12T01:33:54;46.70;;;21.20;;
60612;SDS011;46443;59.792;17.626;2023-09-12T01:36:20;36.55;;;19.42;;
60612;SDS011;46443;59.792;17.626;2023-09-12T01:38:46;38.40;;;21.77;;
60612;SDS011;46443;59.792;17.626;2023-09-12T01:41:12;40.40;;;21.83;;
60612;SDS011;46443;59.792;17.626;2023-09-12T01:43:39;42.63;;;21.13;;
60612;SDS011;46443;59.792;17.626;2023-09-12T01:46:05;38.20;;;21.13;;
60612;SDS011;46443;59.792;17.626;2023-09-12T01:48:32;38.90;;;20.43;;
60612;SDS011;46443;59.792;17.626;2023-09-12T01:51:00;38.20;;;20.63;;
60612;SDS011;46443;59.792;17.626;2023-09-12T01:53:26;39.70;;;21.40;;
60612;SDS011;46443;59.792;17.626;2023-09-12T01:55:54;40.00;;;20.88;;
60612;SDS011;46443;59.792;17.626;2023-09-12T01:58:20;42.25;;;22.95;;
60612;SDS011;46443;59.792;17.626;2023-09-12T02:00:48;45.72;;;22.70;;
60612;SDS011;46443;59.792;17.626;2023-09-12T02:03:14;38.83;;;21.40;;
60612;SDS011;46443;59.792;17.626;2023-09-12T02:05:40;38.57;;;20.33;;
60612;SDS011;46443;59.792;17.626;2023-09-12T02:08:06;35.70;;;20.35;;
60612;SDS011;46443;59.792;17.626;2023-09-12T02:10:32;35.10;;;20.98;;
60612;SDS011;46443;59.792;17.626;2023-09-12T02:12:58;37.05;;;21.75;;
60612;SDS011;46443;59.792;17.626;2023-09-12T02:15:24;39.80;;;22.40;;
60612;SDS011;46443;59.792;17.626;2023-09-12T02:17:51;35.40;;;20.13;;
60612;SDS011;46443;59.792;17.626;2023-09-12T02:20:17;37.53;;;21.60;;
60612;SDS011;46443;59.792;17.626;2023-09-12T02:22:44;36.17;;;21.00;;
60612;SDS011;46443;59.792;17.626;2023-09-12T02:25:10;38.05;;;21.15;;
60612;SDS011;46443;59.792;17.626;2023-09-12T02:27:36;40.45;;;21.13;;
60612;SDS011;46443;59.792;17.626;2023-09-12T02:30:03;37.90;;;20.83;;
60612;SDS011;46443;59.792;17.626;2023-09-12T02:32:29;41.63;;;21.45;;
60612;SDS011;46443;59.792;17.626;2023-09-12T02:34:55;37.83;;;20.10;;
60612;SDS011;46443;59.792;17.626;2023-09-12T02:37:22;33.47;;;20.13;;
60612;SDS011;46443;59.792;17.626;2023-09-12T02:39:48;35.72;;;20.27;;
60612;SDS011;46443;59.792;17.626;2023-09-12T02:42:14;33.33;;;19.60;;
60612;SDS011;46443;59.792;17.626;2023-09-12T02:44:40;36.28;;;20.52;;
60612;SDS011;46443;59.792;17.626;2023-09-12T02:47:06;31.33;;;19.63;;
60612;SDS011;46443;59.792;17.626;2023-09-12T02:49:32;33.97;;;19.30;;
60612;SDS011;46443;59.792;17.626;2023-09-12T02:51:58;34.00;;;19.77;;
60612;SDS011;46443;59.792;17.626;2023-09-12T02:54:24;29.77;;;18.38;;
60612;SDS011;46443;59.792;17.626;2023-09-12T02:56:50;28.08;;;18.13;;
60612;SDS011;46443;59.792;17.626;2023-09-12T02:59:16;30.50;;;19.05;;
60612;SDS011;46443;59.792;17.626;2023-09-12T03:01:44;29.70;;;18.15;;
60612;SDS011;46443;59.792;17.626;2023-09-12T03:04:10;28.60;;;18.15;;
60612;SDS011;46443;59.792;17.626;2023-09-12T03:06:36;26.75;;;17.48;;
60612;SDS011;46443;59.792;17.626;2023-09-12T03:09:02;27.30;;;18.05;;
60612;SDS011;46443;59.792;17.626;2023-09-12T03:11:28;26.63;;;18.02;;
60612;SDS011;46443;59.792;17.626;2023-09-12T03:13:54;24.85;;;16.40;;
60612;SDS011;46443;59.792;17.626;2023-09-12T03:16:21;28.73;;;17.90;;
60612;SDS011;46443;59.792;17.626;2023-09-12T03:18:49;27.40;;;17.83;;
60612;SDS011;46443;59.792;17.626;2023-09-12T03:21:15;25.35;;;16.38;;
60612;SDS011;46443;59.792;17.626;2023-09-12T03:23:41;25.63;;;15.70;;
60612;SDS011;46443;59.792;17.626;2023-09-12T03:26:07;25.23;;;16.88;;
60612;SDS011;46443;59.792;17.626;2023-09-12T03:28:33;24.27;;;16.02;;
60612;SDS011;46443;59.792;17.626;2023-09-12T03:33:31;20.48;;;14.00;;
60612;SDS011;46443;59.792;17.626;2023-09-12T03:35:57;26.23;;;16.50;;
60612;SDS011;46443;59.792;17.626;2023-09-12T03:38:23;28.42;;;19.38;;
60612;SDS011;46443;59.792;17.626;2023-09-12T03:40:49;23.48;;;15.95;;
60612;SDS011;46443;59.792;17.626;2023-09-12T03:43:15;27.33;;;17.20;;
60612;SDS011;46443;59.792;17.626;2023-09-12T03:45:41;28.05;;;16.55;;
60612;SDS011;46443;59.792;17.626;2023-09-12T03:48:07;27.70;;;17.00;;
60612;SDS011;46443;59.792;17.626;2023-09-12T03:50:33;27.45;;;17.63;;
60612;SDS011;46443;59.792;17.626;2023-09-12T03:52:59;26.33;;;16.27;;
60612;SDS011;46443;59.792;17.626;2023-09-12T03:55:26;24.15;;;16.42;;
60612;SDS011;46443;59.792;17.626;2023-09-12T03:57:53;24.05;;;15.45;;
60612;SDS011;46443;59.792;17.626;2023-09-12T04:00:19;21.48;;;15.02;;
60612;SDS011;46443;59.792;17.626;2023-09-12T04:02:45;22.08;;;14.90;;
60612;SDS011;46443;59.792;17.626;2023-09-12T04:05:11;23.52;;;15.32;;
60612;SDS011;46443;59.792;17.626;2023-09-12T04:07:37;22.55;;;15.27;;
60612;SDS011;46443;59.792;17.626;2023-09-12T04:10:03;21.52;;;14.45;;
60612;SDS011;46443;59.792;17.626;2023-09-12T04:12:29;21.17;;;14.02;;
60612;SDS011;46443;59.792;17.626;2023-09-12T04:14:55;22.58;;;14.88;;
60612;SDS011;46443;59.792;17.626;2023-09-12T04:17:21;23.20;;;14.70;;
60612;SDS011;46443;59.792;17.626;2023-09-12T04:19:47;20.60;;;14.32;;
60612;SDS011;46443;59.792;17.626;2023-09-12T04:22:13;21.63;;;14.88;;
60612;SDS011;46443;59.792;17.626;2023-09-12T04:24:39;21.98;;;15.25;;
60612;SDS011;46443;59.792;17.626;2023-09-12T04:27:06;26.67;;;16.08;;
60612;SDS011;46443;59.792;17.626;2023-09-12T04:29:32;23.80;;;14.35;;
60612;SDS011;46443;59.792;17.626;2023-09-12T04:32:02;21.40;;;14.32;;
60612;SDS011;46443;59.792;17.626;2023-09-12T04:34:28;21.90;;;14.23;;
60612;SDS011;46443;59.792;17.626;2023-09-12T04:36:55;21.42;;;13.70;;
60612;SDS011;46443;59.792;17.626;2023-09-12T04:39:21;22.20;;;14.85;;
60612;SDS011;46443;59.792;17.626;2023-09-12T04:41:47;25.30;;;14.73;;
60612;SDS011;46443;59.792;17.626;2023-09-12T04:44:13;20.77;;;14.38;;
60612;SDS011;46443;59.792;17.626;2023-09-12T04:46:39;21.75;;;14.13;;
60612;SDS011;46443;59.792;17.626;2023-09-12T04:49:05;21.55;;;14.45;;
60612;SDS011;46443;59.792;17.626;2023-09-12T04:51:31;19.85;;;14.85;;
60612;SDS011;46443;59.792;17.626;2023-09-12T04:53:58;22.20;;;14.60;;
60612;SDS011;46443;59.792;17.626;2023-09-12T04:56:24;21.85;;;14.02;;
60612;SDS011;46443;59.792;17.626;2023-09-12T04:58:50;18.08;;;12.95;;
60612;SDS011;46443;59.792;17.626;2023-09-12T05:01:16;20.15;;;12.63;;
60612;SDS011;46443;59.792;17.626;2023-09-12T05:03:43;20.30;;;14.18;;
60612;SDS011;46443;59.792;17.626;2023-09-12T05:06:09;20.25;;;13.07;;
60612;SDS011;46443;59.792;17.626;2023-09-12T05:08:35;19.17;;;13.02;;
60612;SDS011;46443;59.792;17.626;2023-09-12T05:11:01;20.50;;;13.00;;
60612;SDS011;46443;59.792;17.626;2023-09-12T05:13:28;20.58;;;13.32;;
60612;SDS011;46443;59.792;17.626;2023-09-12T05:15:54;19.17;;;12.95;;
60612;SDS011;46443;59.792;17.626;2023-09-12T05:18:21;20.13;;;13.05;;
60612;SDS011;46443;59.792;17.626;2023-09-12T05:20:47;19.95;;;14.30;;
60612;SDS011;46443;59.792;17.626;2023-09-12T05:23:13;17.67;;;12.85;;
60612;SDS011;46443;59.792;17.626;2023-09-12T05:25:39;17.08;;;11.93;;
60612;SDS011;46443;59.792;17.626;2023-09-12T05:28:05;17.85;;;12.05;;
60612;SDS011;46443;59.792;17.626;2023-09-12T05:30:32;17.60;;;12.70;;
60612;SDS011;46443;59.792;17.626;2023-09-12T05:32:58;17.48;;;12.52;;
60612;SDS011;46443;59.792;17.626;2023-09-12T05:35:24;16.38;;;12.20;;
60612;SDS011;46443;59.792;17.626;2023-09-12T05:37:50;19.60;;;12.25;;
60612;SDS011;46443;59.792;17.626;2023-09-12T05:40:17;18.08;;;12.15;;
60612;SDS011;46443;59.792;17.626;2023-09-12T05:42:43;21.83;;;13.10;;
60612;SDS011;46443;59.792;17.626;2023-09-12T05:45:10;17.33;;;13.02;;
60612;SDS011;46443;59.792;17.626;2023-09-12T05:47:36;19.63;;;12.60;;
60612;SDS011;46443;59.792;17.626;2023-09-12T05:50:02;17.45;;;12.40;;
60612;SDS011;46443;59.792;17.626;2023-09-12T05:52:31;18.30;;;12.13;;
60612;SDS011;46443;59.792;17.626;2023-09-12T05:54:57;20.05;;;14.05;;
60612;SDS011;46443;59.792;17.626;2023-09-12T05:57:23;21.58;;;13.48;;
60612;SDS011;46443;59.792;17.626;2023-09-12T05:59:50;20.05;;;13.48;;
60612;SDS011;46443;59.792;17.626;2023-09-12T06:02:16;19.67;;;14.18;;
60612;SDS011;46443;59.792;17.626;2023-09-12T06:04:42;19.27;;;13.20;;
60612;SDS011;46443;59.792;17.626;2023-09-12T06:07:08;20.85;;;13.43;;
60612;SDS011;46443;59.792;17.626;2023-09-12T06:09:36;18.70;;;12.85;;
60612;SDS011;46443;59.792;17.626;2023-09-12T06:12:02;18.45;;;12.25;;
60612;SDS011;46443;59.792;17.626;2023-09-12T06:14:28;16.50;;;11.75;;
60612;SDS011;46443;59.792;17.626;2023-09-12T06:16:54;17.98;;;12.18;;
60612;SDS011;46443;59.792;17.626;2023-09-12T06:19:20;17.33;;;12.15;;
60612;SDS011;46443;59.792;17.626;2023-09-12T06:21:46;17.67;;;12.77;;
60612;SDS011;46443;59.792;17.626;2023-09-12T06:24:14;17.00;;;12.00;;
60612;SDS011;46443;59.792;17.626;2023-09-12T06:26:40;15.20;;;11.45;;
60612;SDS011;46443;59.792;17.626;2023-09-12T06:29:06;15.85;;;11.77;;
60612;SDS011;46443;59.792;17.626;2023-09-12T06:31:33;16.27;;;11.00;;
60612;SDS011;46443;59.792;17.626;2023-09-12T06:33:59;19.77;;;11.90;;
60612;SDS011;46443;59.792;17.626;2023-09-12T06:36:25;14.70;;;11.20;;
60612;SDS011;46443;59.792;17.626;2023-09-12T06:38:54;14.73;;;11.00;;
60612;SDS011;46443;59.792;17.626;2023-09-12T06:41:20;16.65;;;10.27;;
60612;SDS011;46443;59.792;17.626;2023-09-12T06:43:46;12.30;;;9.30;;
60612;SDS011;46443;59.792;17.626;2023-09-12T06:46:12;14.90;;;10.60;;
60612;SDS011;46443;59.792;17.626;2023-09-12T06:48:39;15.65;;;10.80;;
60612;SDS011;46443;59.792;17.626;2023-09-12T06:51:05;13.30;;;10.65;;
60612;SDS011;46443;59.792;17.626;2023-09-12T06:53:31;13.73;;;10.27;;
60612;SDS011;46443;59.792;17.626;2023-09-12T06:55:57;15.25;;;10.73;;
60612;SDS011;46443;59.792;17.626;2023-09-12T06:58:24;14.38;;;10.55;;
60612;SDS011;46443;59.792;17.626;2023-09-12T07:00:50;13.40;;;10.40;;
60612;SDS011;46443;59.792;17.626;2023-09-12T07:03:16;12.48;;;9.52;;
60612;SDS011;46443;59.792;17.626;2023-09-12T07:05:42;13.32;;;10.02;;
60612;SDS011;46443;59.792;17.626;2023-09-12T07:08:09;14.00;;;9.32;;
60612;SDS011;46443;59.792;17.626;2023-09-12T07:10:35;13.65;;;9.77;;
60612;SDS011;46443;59.792;17.626;2023-09-12T07:13:02;12.00;;;9.40;;
60612;SDS011;46443;59.792;17.626;2023-09-12T07:15:29;11.82;;;9.00;;
60612;SDS011;46443;59.792;17.626;2023-09-12T07:17:55;13.45;;;9.52;;
60612;SDS011;46443;59.792;17.626;2023-09-12T07:20:21;17.10;;;11.18;;
60612;SDS011;46443;59.792;17.626;2023-09-12T07:22:48;13.13;;;10.10;;
60612;SDS011;46443;59.792;17.626;2023-09-12T07:25:15;13.45;;;9.57;;
60612;SDS011;46443;59.792;17.626;2023-09-12T07:27:41;13.98;;;10.18;;
60612;SDS011;46443;59.792;17.626;2023-09-12T07:30:07;12.02;;;8.80;;
60612;SDS011;46443;59.792;17.626;2023-09-12T07:32:34;11.63;;;8.70;;
60612;SDS011;46443;59.792;17.626;2023-09-12T07:35:00;12.52;;;9.32;;
60612;SDS011;46443;59.792;17.626;2023-09-12T07:37:26;12.48;;;9.20;;
60612;SDS011;46443;59.792;17.626;2023-09-12T07:39:52;12.27;;;9.00;;
60612;SDS011;46443;59.792;17.626;2023-09-12T07:42:21;13.32;;;9.63;;
60612;SDS011;46443;59.792;17.626;2023-09-12T07:44:47;13.32;;;9.07;;
60612;SDS011;46443;59.792;17.626;2023-09-12T07:47:13;12.80;;;9.65;;
60612;SDS011;46443;59.792;17.626;2023-09-12T07:49:39;13.13;;;8.90;;
60612;SDS011;46443;59.792;17.626;2023-09-12T07:52:05;12.85;;;9.88;;
60612;SDS011;46443;59.792;17.626;2023-09-12T07:54:32;13.52;;;9.70;;
60612;SDS011;46443;59.792;17.626;2023-09-12T07:56:58;12.98;;;9.70;;
60612;SDS011;46443;59.792;17.626;2023-09-12T07:59:24;13.43;;;9.60;;
60612;SDS011;46443;59.792;17.626;2023-09-12T08:01:50;12.85;;;9.23;;
60612;SDS011;46443;59.792;17.626;2023-09-12T08:04:16;12.50;;;8.73;;
60612;SDS011;46443;59.792;17.626;2023-09-12T08:06:43;11.10;;;8.70;;
60612;SDS011;46443;59.792;17.626;2023-09-12T08:09:09;11.88;;;8.55;;
60612;SDS011;46443;59.792;17.626;2023-09-12T08:11:35;10.80;;;8.20;;
60612;SDS011;46443;59.792;17.626;2023-09-12T08:14:01;9.88;;;7.72;;
60612;SDS011;46443;59.792;17.626;2023-09-12T08:16:27;12.15;;;8.02;;
60612;SDS011;46443;59.792;17.626;2023-09-12T08:18:53;13.77;;;8.27;;
60612;SDS011;46443;59.792;17.626;2023-09-12T08:21:19;11.15;;;6.30;;
60612;SDS011;46443;59.792;17.626;2023-09-12T08:23:46;7.43;;;5.72;;
60612;SDS011;46443;59.792;17.626;2023-09-12T08:26:12;8.18;;;7.20;;
60612;SDS011;46443;59.792;17.626;2023-09-12T08:28:38;8.98;;;6.32;;
60612;SDS011;46443;59.792;17.626;2023-09-12T08:31:04;8.07;;;6.10;;
60612;SDS011;46443;59.792;17.626;2023-09-12T08:33:30;9.43;;;7.18;;
60612;SDS011;46443;59.792;17.626;2023-09-12T08:35:56;8.98;;;6.55;;
60612;SDS011;46443;59.792;17.626;2023-09-12T08:38:22;8.70;;;6.38;;
60612;SDS011;46443;59.792;17.626;2023-09-12T08:40:49;8.13;;;6.28;;
60612;SDS011;46443;59.792;17.626;2023-09-12T08:43:15;10.15;;;6.38;;
60612;SDS011;46443;59.792;17.626;2023-09-12T08:45:41;7.60;;;5.68;;
60612;SDS011;46443;59.792;17.626;2023-09-12T08:48:11;7.00;;;5.38;;
60612;SDS011;46443;59.792;17.626;2023-09-12T08:50:37;9.10;;;5.85;;
60612;SDS011;46443;59.792;17.626;2023-09-12T08:53:03;8.05;;;5.63;;
60612;SDS011;46443;59.792;17.626;2023-09-12T08:55:30;8.48;;;5.80;;
60612;SDS011;46443;59.792;17.626;2023-09-12T08:57:58;7.32;;;5.78;;
60612;SDS011;46443;59.792;17.626;2023-09-12T09:00:25;8.05;;;5.85;;
60612;SDS011;46443;59.792;17.626;2023-09-12T09:02:52;7.70;;;5.75;;
60612;SDS011;46443;59.792;17.626;2023-09-12T09:05:20;9.50;;;5.60;;
60612;SDS011;46443;59.792;17.626;2023-09-12T09:07:49;7.75;;;6.10;;
60612;SDS011;46443;59.792;17.626;2023-09-12T09:10:16;7.13;;;6.20;;
60612;SDS011;46443;59.792;17.626;2023-09-12T09:12:43;9.50;;;5.72;;
60612;SDS011;46443;59.792;17.626;2023-09-12T09:15:29;7.30;;;5.80;;
60612;SDS011;46443;59.792;17.626;2023-09-12T09:17:56;8.25;;;6.35;;
60612;SDS011;46443;59.792;17.626;2023-09-12T09:23:11;9.75;;;6.63;;
60612;SDS011;46443;59.792;17.626;2023-09-12T09:25:40;7.88;;;5.93;;
60612;SDS011;46443;59.792;17.626;2023-09-12T09:28:16;9.20;;;6.72;;
60612;SDS011;46443;59.792;17.626;2023-09-12T09:30:44;7.72;;;5.88;;
60612;SDS011;46443;59.792;17.626;2023-09-12T09:33:11;8.25;;;5.88;;
60612;SDS011;46443;59.792;17.626;2023-09-12T09:35:37;8.10;;;6.18;;
60612;SDS011;46443;59.792;17.626;2023-09-12T09:38:05;9.00;;;6.50;;
60612;SDS011;46443;59.792;17.626;2023-09-12T09:40:32;8.23;;;6.10;;
60612;SDS011;46443;59.792;17.626;2023-09-12T09:42:58;9.45;;;6.00;;
60612;SDS011;46443;59.792;17.626;2023-09-12T09:45:25;8.15;;;6.15;;
60612;SDS011;46443;59.792;17.626;2023-09-12T09:47:51;9.80;;;6.82;;
60612;SDS011;46443;59.792;17.626;2023-09-12T09:50:17;8.00;;;5.95;;
60612;SDS011;46443;59.792;17.626;2023-09-12T09:52:43;9.02;;;6.80;;
60612;SDS011;46443;59.792;17.626;2023-09-12T09:55:13;9.63;;;6.60;;
60612;SDS011;46443;59.792;17.626;2023-09-12T09:57:40;7.60;;;6.50;;
60612;SDS011;46443;59.792;17.626;2023-09-12T10:00:06;9.95;;;6.80;;
60612;SDS011;46443;59.792;17.626;2023-09-12T10:02:36;9.88;;;7.03;;
60612;SDS011;46443;59.792;17.626;2023-09-12T10:05:04;9.68;;;7.22;;
60612;SDS011;46443;59.792;17.626;2023-09-12T10:07:33;10.15;;;7.97;;
60612;SDS011;46443;59.792;17.626;2023-09-12T10:10:03;9.48;;;7.28;;
60612;SDS011;46443;59.792;17.626;2023-09-12T10:12:34;11.95;;;7.57;;
60612;SDS011;46443;59.792;17.626;2023-09-12T10:15:01;10.63;;;7.78;;
60612;SDS011;46443;59.792;17.626;2023-09-12T10:17:29;13.80;;;8.40;;
60612;SDS011;46443;59.792;17.626;2023-09-12T10:22:34;11.10;;;8.18;;
60612;SDS011;46443;59.792;17.626;2023-09-12T10:25:02;10.27;;;7.43;;
60612;SDS011;46443;59.792;17.626;2023-09-12T10:27:29;10.07;;;7.05;;
60612;SDS011;46443;59.792;17.626;2023-09-12T10:29:55;9.13;;;7.53;;
60612;SDS011;46443;59.792;17.626;2023-09-12T10:32:24;10.93;;;8.48;;
60612;SDS011;46443;59.792;17.626;2023-09-12T10:34:52;11.85;;;8.65;;
60612;SDS011;46443;59.792;17.626;2023-09-12T10:37:19;10.05;;;8.95;;
60612;SDS011;46443;59.792;17.626;2023-09-12T10:39:47;11.18;;;8.55;;
60612;SDS011;46443;59.792;17.626;2023-09-12T10:42:15;13.30;;;9.48;;
60612;SDS011;46443;59.792;17.626;2023-09-12T10:44:43;11.77;;;8.50;;
60612;SDS011;46443;59.792;17.626;2023-09-12T10:47:09;12.45;;;8.85;;
60612;SDS011;46443;59.792;17.626;2023-09-12T10:49:35;12.45;;;8.77;;
60612;SDS011;46443;59.792;17.626;2023-09-12T10:52:02;9.80;;;8.13;;
60612;SDS011;46443;59.792;17.626;2023-09-12T10:54:40;13.95;;;8.85;;
60612;SDS011;46443;59.792;17.626;2023-09-12T10:57:10;12.07;;;9.15;;
60612;SDS011;46443;59.792;17.626;2023-09-12T11:00:23;12.55;;;8.45;;
60612;SDS011;46443;59.792;17.626;2023-09-12T11:02:31;13.45;;;8.95;;
60612;SDS011;46443;59.792;17.626;2023-09-12T11:04:58;14.70;;;9.10;;
60612;SDS011;46443;59.792;17.626;2023-09-12T11:07:31;12.45;;;9.18;;
60612;SDS011;46443;59.792;17.626;2023-09-12T11:12:45;12.40;;;9.32;;
60612;SDS011;46443;59.792;17.626;2023-09-12T11:15:12;12.88;;;9.45;;
60612;SDS011;46443;59.792;17.626;2023-09-12T11:17:49;13.02;;;9.38;;
60612;SDS011;46443;59.792;17.626;2023-09-12T11:20:25;12.57;;;9.95;;
60612;SDS011;46443;59.792;17.626;2023-09-12T11:22:51;14.45;;;9.82;;
60612;SDS011;46443;59.792;17.626;2023-09-12T11:25:20;14.35;;;10.10;;
60612;SDS011;46443;59.792;17.626;2023-09-12T11:30:22;11.75;;;8.80;;
60612;SDS011;46443;59.792;17.626;2023-09-12T11:32:53;12.32;;;8.93;;
60612;SDS011;46443;59.792;17.626;2023-09-12T11:35:26;12.77;;;9.25;;
60612;SDS011;46443;59.792;17.626;2023-09-12T11:37:58;12.40;;;9.35;;
60612;SDS011;46443;59.792;17.626;2023-09-12T11:40:26;13.38;;;9.77;;
60612;SDS011;46443;59.792;17.626;2023-09-12T11:43:06;13.88;;;9.73;;
60612;SDS011;46443;59.792;17.626;2023-09-12T11:45:33;13.02;;;9.82;;
60612;SDS011;46443;59.792;17.626;2023-09-12T11:48:00;11.18;;;9.15;;
60612;SDS011;46443;59.792;17.626;2023-09-12T11:50:32;12.48;;;9.90;;
60612;SDS011;46443;59.792;17.626;2023-09-12T11:55:31;14.05;;;11.05;;
60612;SDS011;46443;59.792;17.626;2023-09-12T11:57:57;13.93;;;10.57;;
60612;SDS011;46443;59.792;17.626;2023-09-12T12:00:23;14.98;;;10.20;;
60612;SDS011;46443;59.792;17.626;2023-09-12T12:02:51;14.38;;;10.18;;
60612;SDS011;46443;59.792;17.626;2023-09-12T12:05:17;15.20;;;10.88;;
60612;SDS011;46443;59.792;17.626;2023-09-12T12:07:44;16.83;;;11.05;;
60612;SDS011;46443;59.792;17.626;2023-09-12T12:10:12;14.75;;;11.55;;
60612;SDS011;46443;59.792;17.626;2023-09-12T12:12:38;16.00;;;10.98;;
60612;SDS011;46443;59.792;17.626;2023-09-12T12:15:09;16.20;;;10.65;;
60612;SDS011;46443;59.792;17.626;2023-09-12T12:17:36;16.60;;;12.23;;
60612;SDS011;46443;59.792;17.626;2023-09-12T12:20:06;18.77;;;12.95;;
60612;SDS011;46443;59.792;17.626;2023-09-12T12:22:33;15.70;;;11.50;;
60612;SDS011;46443;59.792;17.626;2023-09-12T12:25:05;17.80;;;12.68;;
60612;SDS011;46443;59.792;17.626;2023-09-12T12:27:31;17.92;;;12.82;;
60612;SDS011;46443;59.792;17.626;2023-09-12T12:29:57;19.33;;;12.90;;
60612;SDS011;46443;59.792;17.626;2023-09-12T12:32:23;20.20;;;13.43;;
60612;SDS011;46443;59.792;17.626;2023-09-12T12:34:49;18.95;;;13.25;;
60612;SDS011;46443;59.792;17.626;2023-09-12T12:37:16;18.92;;;12.65;;
60612;SDS011;46443;59.792;17.626;2023-09-12T12:39:42;18.77;;;12.90;;
60612;SDS011;46443;59.792;17.626;2023-09-12T12:42:09;19.38;;;12.35;;
60612;SDS011;46443;59.792;17.626;2023-09-12T12:44:35;18.23;;;13.35;;
60612;SDS011;46443;59.792;17.626;2023-09-12T12:47:05;16.83;;;12.85;;
60612;SDS011;46443;59.792;17.626;2023-09-12T12:49:36;18.92;;;12.80;;
60612;SDS011;46443;59.792;17.626;2023-09-12T12:52:03;17.23;;;12.80;;
60612;SDS011;46443;59.792;17.626;2023-09-12T12:54:32;18.20;;;13.23;;
60612;SDS011;46443;59.792;17.626;2023-09-12T12:56:59;19.35;;;12.18;;
60612;SDS011;46443;59.792;17.626;2023-09-12T12:59:26;17.48;;;12.65;;
60612;SDS011;46443;59.792;17.626;2023-09-12T13:01:54;18.75;;;12.48;;
60612;SDS011;46443;59.792;17.626;2023-09-12T13:04:20;18.90;;;12.57;;
60612;SDS011;46443;59.792;17.626;2023-09-12T13:06:46;15.13;;;11.93;;
60612;SDS011;46443;59.792;17.626;2023-09-12T13:09:12;17.95;;;12.20;;
60612;SDS011;46443;59.792;17.626;2023-09-12T13:11:38;18.60;;;11.52;;
60612;SDS011;46443;59.792;17.626;2023-09-12T13:14:05;20.00;;;12.80;;
60612;SDS011;46443;59.792;17.626;2023-09-12T13:16:34;17.45;;;12.18;;
60612;SDS011;46443;59.792;17.626;2023-09-12T13:19:00;17.65;;;12.25;;
60612;SDS011;46443;59.792;17.626;2023-09-12T13:21:27;16.45;;;12.25;;
60612;SDS011;46443;59.792;17.626;2023-09-12T13:23:53;17.08;;;11.95;;
60612;SDS011;46443;59.792;17.626;2023-09-12T13:26:19;18.60;;;12.80;;
60612;SDS011;46443;59.792;17.626;2023-09-12T13:28:45;17.73;;;11.65;;
60612;SDS011;46443;59.792;17.626;2023-09-12T13:31:11;17.35;;;11.73;;
60612;SDS011;46443;59.792;17.626;2023-09-12T13:33:38;14.15;;;11.68;;
60612;SDS011;46443;59.792;17.626;2023-09-12T13:36:04;18.50;;;12.48;;
60612;SDS011;46443;59.792;17.626;2023-09-12T13:38:30;16.17;;;11.80;;
60612;SDS011;46443;59.792;17.626;2023-09-12T13:40:56;15.35;;;11.30;;
60612;SDS011;46443;59.792;17.626;2023-09-12T13:43:22;16.40;;;12.35;;
60612;SDS011;46443;59.792;17.626;2023-09-12T13:45:48;15.05;;;10.73;;
60612;SDS011;46443;59.792;17.626;2023-09-12T13:48:14;14.93;;;10.95;;
60612;SDS011;46443;59.792;17.626;2023-09-12T13:50:40;14.93;;;10.00;;
60612;SDS011;46443;59.792;17.626;2023-09-12T13:53:09;16.45;;;8.75;;
60612;SDS011;46443;59.792;17.626;2023-09-12T13:55:36;12.13;;;8.57;;
60612;SDS011;46443;59.792;17.626;2023-09-12T13:58:02;10.52;;;7.65;;
60612;SDS011;46443;59.792;17.626;2023-09-12T14:00:29;11.63;;;8.55;;
60612;SDS011;46443;59.792;17.626;2023-09-12T14:02:55;10.23;;;7.72;;
60612;SDS011;46443;59.792;17.626;2023-09-12T14:05:21;10.55;;;7.53;;
60612;SDS011;46443;59.792;17.626;2023-09-12T14:07:47;11.52;;;7.80;;
60612;SDS011;46443;59.792;17.626;2023-09-12T14:10:14;10.52;;;7.88;;
60612;SDS011;46443;59.792;17.626;2023-09-12T14:12:40;10.27;;;7.07;;
60612;SDS011;46443;59.792;17.626;2023-09-12T14:15:07;10.85;;;7.20;;
60612;SDS011;46443;59.792;17.626;2023-09-12T14:17:33;10.35;;;7.32;;
60612;SDS011;46443;59.792;17.626;2023-09-12T14:19:59;9.60;;;7.03;;
60612;SDS011;46443;59.792;17.626;2023-09-12T14:22:25;11.02;;;7.60;;
60612;SDS011;46443;59.792;17.626;2023-09-12T14:24:51;13.27;;;7.10;;
60612;SDS011;46443;59.792;17.626;2023-09-12T14:27:17;9.90;;;6.55;;
60612;SDS011;46443;59.792;17.626;2023-09-12T14:29:43;10.00;;;7.22;;
60612;SDS011;46443;59.792;17.626;2023-09-12T14:32:11;9.80;;;7.25;;
60612;SDS011;46443;59.792;17.626;2023-09-12T14:34:37;11.98;;;7.20;;